Time;durP1;ratioP1;P1;durP2;ratioP2;P2;SDS_P1;SDS_P2;PMS_P1;PMS_P2;Temp;Humidity;BMP_temperature;BMP_pressure;BME280_temperature;BME280_humidity;BME280_pressure;Samples;Min_cycle;Max_cycle;Signal;HPM_P1;HPM_P2
2023/08/10 00:00:17;;;;;;;3.92;1.45;;;17.40;94.80;;;;;;5032787;28;20045;-81
2023/08/10 00:02:44;;;;;;;4.50;1.30;;;17.40;94.70;;;;;;5031965;28;20384;-81
2023/08/10 00:05:10;;;;;;;3.83;1.15;;;17.40;94.80;;;;;;5032873;28;20139;-81
2023/08/10 00:07:36;;;;;;;5.93;1.27;;;17.40;94.80;;;;;;5032516;28;20052;-81
2023/08/10 00:10:08;;;;;;;4.22;1.50;;;17.30;94.70;;;;;;5031947;28;20041;-81
2023/08/10 00:12:37;;;;;;;5.50;1.30;;;17.30;94.90;;;;;;5032870;28;20056;-81
2023/08/10 00:15:03;;;;;;;4.38;1.30;;;17.30;95.00;;;;;;5032347;28;20041;-80
2023/08/10 00:17:29;;;;;;;4.93;1.45;;;17.20;95.00;;;;;;5032052;28;20049;-81
2023/08/10 00:19:55;;;;;;;5.13;1.58;;;17.20;95.10;;;;;;5032647;28;20068;-81
2023/08/10 00:22:20;;;;;;;3.53;1.25;;;17.20;95.20;;;;;;5035326;28;20457;-81
2023/08/10 00:24:47;;;;;;;3.25;1.23;;;17.20;95.00;;;;;;5033117;28;20484;-81
2023/08/10 00:27:12;;;;;;;3.75;1.35;;;17.10;94.90;;;;;;5032509;28;20090;-80
2023/08/10 00:29:38;;;;;;;5.53;1.65;;;17.20;95.20;;;;;;5032598;28;20089;-81
2023/08/10 00:32:04;;;;;;;6.60;1.42;;;17.20;95.40;;;;;;5031945;28;20551;-81
2023/08/10 00:34:29;;;;;;;4.50;1.42;;;17.10;95.50;;;;;;5032305;28;20049;-81
2023/08/10 00:36:55;;;;;;;4.18;1.30;;;17.10;95.60;;;;;;5033190;28;20492;-81
2023/08/10 00:39:21;;;;;;;7.43;1.40;;;17.10;95.40;;;;;;5032842;28;20133;-81
2023/08/10 00:41:46;;;;;;;4.82;1.40;;;17.10;95.20;;;;;;5032654;28;20073;-81
2023/08/10 00:44:13;;;;;;;3.13;1.20;;;17.10;95.40;;;;;;5032318;28;20510;-81
2023/08/10 00:46:39;;;;;;;5.13;1.30;;;17.00;95.40;;;;;;5031152;28;20407;-81
2023/08/10 00:49:05;;;;;;;4.82;1.50;;;17.00;95.50;;;;;;5032080;28;20037;-81
2023/08/10 00:51:31;;;;;;;4.28;1.48;;;17.00;95.60;;;;;;5031382;28;20128;-80
2023/08/10 00:53:56;;;;;;;5.57;1.58;;;17.00;95.60;;;;;;5032057;28;20467;-81
2023/08/10 00:56:22;;;;;;;3.42;1.40;;;17.00;95.70;;;;;;5032204;28;20498;-81
2023/08/10 00:58:49;;;;;;;3.42;1.33;;;16.90;95.40;;;;;;5032001;28;20573;-81
2023/08/10 01:01:15;;;;;;;5.57;1.80;;;16.90;95.50;;;;;;5032038;28;20068;-81
2023/08/10 01:03:41;;;;;;;5.25;1.42;;;16.90;95.80;;;;;;5031567;28;20399;-81
2023/08/10 01:06:18;;;;;;;3.58;1.42;;;16.80;95.50;;;;;;5032507;28;20046;-81
2023/08/10 01:09:10;;;;;;;5.15;1.77;;;16.80;95.60;;;;;;5028994;28;20172;-81
2023/08/10 01:11:53;;;;;;;3.87;1.60;;;16.80;95.60;;;;;;5032723;28;20103;-81
2023/08/10 01:14:30;;;;;;;6.15;1.42;;;16.70;95.80;;;;;;5035966;28;20053;-81
2023/08/10 01:16:59;;;;;;;5.95;1.60;;;16.70;95.70;;;;;;5035624;28;20088;-81
2023/08/10 01:19:35;;;;;;;4.97;1.42;;;16.70;96.00;;;;;;5035208;28;20522;-81
2023/08/10 01:22:22;;;;;;;5.07;1.73;;;16.70;95.80;;;;;;5044624;28;20041;-81
2023/08/10 01:25:04;;;;;;;5.13;1.55;;;16.70;95.80;;;;;;5051391;28;20057;-81
2023/08/10 01:27:31;;;;;;;5.05;1.83;;;16.60;95.80;;;;;;5035435;28;20121;-81
2023/08/10 01:29:57;;;;;;;5.20;1.88;;;16.60;96.10;;;;;;5018395;28;20088;-81
2023/08/10 01:32:23;;;;;;;4.28;1.70;;;16.60;96.20;;;;;;5053639;28;20117;-81
2023/08/10 01:34:50;;;;;;;3.10;1.35;;;16.60;96.20;;;;;;5055838;28;20048;-81
2023/08/10 01:37:16;;;;;;;6.93;1.65;;;16.70;96.20;;;;;;5054733;28;20052;-81
2023/08/10 01:39:42;;;;;;;5.50;1.70;;;16.60;96.20;;;;;;5050389;28;20057;-81
2023/08/10 01:42:07;;;;;;;5.60;1.70;;;16.60;96.20;;;;;;5035006;28;20125;-81
2023/08/10 01:44:33;;;;;;;4.68;1.52;;;16.60;96.20;;;;;;5035278;28;20041;-81
2023/08/10 01:47:03;;;;;;;3.90;1.42;;;16.60;96.20;;;;;;5052638;28;20056;-81
2023/08/10 01:49:33;;;;;;;5.50;1.50;;;16.60;96.20;;;;;;5055658;28;20044;-81
2023/08/10 01:52:01;;;;;;;4.43;1.40;;;16.50;96.10;;;;;;5045776;28;20103;-81
2023/08/10 01:54:28;;;;;;;4.13;1.50;;;16.50;96.10;;;;;;5034941;28;20049;-81
2023/08/10 01:56:54;;;;;;;5.82;1.75;;;16.50;95.90;;;;;;5050441;28;20059;-81
2023/08/10 01:59:19;;;;;;;4.80;1.60;;;16.40;95.70;;;;;;5035193;28;20396;-81
2023/08/10 02:01:45;;;;;;;4.05;1.60;;;16.40;95.80;;;;;;5049967;28;20038;-81
2023/08/10 02:04:11;;;;;;;4.07;1.55;;;16.30;95.90;;;;;;5035130;28;20503;-81
2023/08/10 02:06:40;;;;;;;4.43;1.67;;;16.30;95.80;;;;;;5034410;28;20128;-79
2023/08/10 02:09:06;;;;;;;4.60;1.55;;;16.20;95.70;;;;;;5025404;28;20049;-81
2023/08/10 02:11:32;;;;;;;4.15;1.60;;;16.20;95.60;;;;;;5033937;28;20124;-81
2023/08/10 02:13:59;;;;;;;4.30;1.60;;;16.20;95.70;;;;;;5033047;28;20045;-81
2023/08/10 02:16:24;;;;;;;4.72;1.73;;;16.10;95.50;;;;;;5035021;28;20049;-81
2023/08/10 02:18:50;;;;;;;3.47;1.40;;;16.10;95.50;;;;;;5040082;28;20454;-81
2023/08/10 02:21:15;;;;;;;5.25;1.67;;;16.00;95.50;;;;;;5035568;28;20534;-81
2023/08/10 02:23:41;;;;;;;2.85;1.50;;;16.00;95.60;;;;;;5034684;28;20034;-81
2023/08/10 02:26:07;;;;;;;4.18;1.48;;;16.00;95.60;;;;;;5034425;28;20045;-81
2023/08/10 02:28:32;;;;;;;3.17;1.30;;;15.90;95.50;;;;;;5034340;28;20049;-81
2023/08/10 02:30:59;;;;;;;3.63;1.40;;;15.90;95.60;;;;;;5034582;28;20045;-81
2023/08/10 02:33:24;;;;;;;6.85;1.55;;;15.90;95.60;;;;;;5034735;28;20099;-81
2023/08/10 02:35:53;;;;;;;3.80;1.50;;;15.80;95.50;;;;;;5034472;28;20427;-81
2023/08/10 02:38:19;;;;;;;4.53;1.77;;;15.80;95.60;;;;;;5034959;28;20106;-81
2023/08/10 02:40:47;;;;;;;3.50;1.50;;;15.80;96.10;;;;;;5046908;28;20433;-81
2023/08/10 02:43:13;;;;;;;3.45;1.60;;;15.80;96.20;;;;;;5038675;28;20052;-81
2023/08/10 02:45:39;;;;;;;5.38;1.50;;;15.80;96.20;;;;;;5033348;28;20041;-81
2023/08/10 02:48:06;;;;;;;4.07;1.45;;;15.70;96.20;;;;;;5034475;28;20435;-81
2023/08/10 02:50:31;;;;;;;3.78;1.55;;;15.70;96.30;;;;;;5033979;28;20095;-81
2023/08/10 02:52:57;;;;;;;4.30;1.60;;;15.70;96.40;;;;;;5033972;28;20053;-81
2023/08/10 02:55:23;;;;;;;3.40;1.27;;;15.70;96.30;;;;;;5034169;28;20052;-81
2023/08/10 02:57:48;;;;;;;5.25;1.63;;;15.60;96.40;;;;;;5033875;28;20058;-81
2023/08/10 03:00:14;;;;;;;5.38;1.88;;;15.60;96.50;;;;;;5033599;28;20496;-81
2023/08/10 03:02:40;;;;;;;5.72;1.73;;;15.60;96.20;;;;;;5034314;28;20081;-81
2023/08/10 03:05:06;;;;;;;4.45;1.58;;;15.60;96.30;;;;;;5049164;28;20081;-81
2023/08/10 03:07:32;;;;;;;4.63;1.60;;;15.60;96.60;;;;;;5034262;28;20041;-81
2023/08/10 03:09:58;;;;;;;4.93;1.50;;;15.60;96.30;;;;;;5034021;28;20045;-81
2023/08/10 03:12:23;;;;;;;3.72;1.50;;;15.50;96.30;;;;;;5034585;28;20072;-81
2023/08/10 03:14:49;;;;;;;3.20;1.20;;;15.50;96.50;;;;;;5033579;28;20045;-81
2023/08/10 03:17:15;;;;;;;4.18;1.38;;;15.50;96.30;;;;;;5033750;28;20465;-82
2023/08/10 03:19:41;;;;;;;3.95;1.40;;;15.50;96.50;;;;;;5033146;28;20049;-81
2023/08/10 03:22:07;;;;;;;5.20;1.45;;;15.50;96.50;;;;;;5033878;28;20052;-81
2023/08/10 03:24:36;;;;;;;4.80;1.63;;;15.50;96.70;;;;;;5033677;28;20054;-81
2023/08/10 03:27:01;;;;;;;3.63;1.65;;;15.50;96.50;;;;;;5051170;28;20043;-81
2023/08/10 03:29:27;;;;;;;4.95;1.55;;;15.50;96.60;;;;;;5041407;28;20042;-81
2023/08/10 03:31:52;;;;;;;2.88;1.27;;;15.40;96.40;;;;;;5033375;28;20053;-81
2023/08/10 03:34:18;;;;;;;4.40;1.52;;;15.40;96.30;;;;;;5038127;28;20049;-81
2023/08/10 03:36:44;;;;;;;3.58;1.50;;;15.40;96.40;;;;;;5035346;28;20407;-81
2023/08/10 03:39:09;;;;;;;4.25;1.50;;;15.40;96.70;;;;;;5032674;28;20496;-81
2023/08/10 03:41:35;;;;;;;3.67;1.60;;;15.40;96.80;;;;;;5033028;28;20053;-81
2023/08/10 03:44:01;;;;;;;4.00;1.48;;;15.40;97.00;;;;;;5032090;28;20055;-81
2023/08/10 03:46:26;;;;;;;4.32;1.48;;;15.50;97.00;;;;;;5032043;28;20505;-81
2023/08/10 03:48:52;;;;;;;3.88;1.40;;;15.40;97.00;;;;;;5031976;28;20115;-81
2023/08/10 03:51:18;;;;;;;4.65;1.50;;;15.40;97.00;;;;;;5031876;28;20438;-81
2023/08/10 03:53:43;;;;;;;3.30;1.40;;;15.50;96.80;;;;;;5032946;28;20046;-81
2023/08/10 03:56:09;;;;;;;3.88;1.35;;;15.50;96.70;;;;;;5030226;28;20667;-81
2023/08/10 03:58:35;;;;;;;4.80;1.52;;;15.50;96.60;;;;;;5030510;28;20411;-81
2023/08/10 04:01:02;;;;;;;3.55;1.45;;;15.40;96.60;;;;;;5031744;28;20092;-82
2023/08/10 04:03:28;;;;;;;4.97;1.30;;;15.40;96.80;;;;;;5032901;28;20060;-81
2023/08/10 04:05:54;;;;;;;2.70;1.30;;;15.40;96.70;;;;;;5033621;28;20045;-80
2023/08/10 04:08:20;;;;;;;3.03;1.33;;;15.40;96.50;;;;;;5032284;28;20041;-81
2023/08/10 04:10:46;;;;;;;3.25;1.40;;;15.40;96.30;;;;;;5033396;28;20111;-81
2023/08/10 04:13:12;;;;;;;4.78;1.45;;;15.40;96.20;;;;;;5032914;28;20538;-82
2023/08/10 04:15:38;;;;;;;3.78;1.27;;;15.40;96.30;;;;;;5032743;28;20044;-81
2023/08/10 04:18:04;;;;;;;4.28;1.45;;;15.40;96.20;;;;;;5031585;28;20083;-81
2023/08/10 04:20:30;;;;;;;3.10;1.35;;;15.30;96.20;;;;;;5032742;28;20125;-81
2023/08/10 04:22:57;;;;;;;3.80;1.20;;;15.30;96.00;;;;;;5042132;28;20223;-81
2023/08/10 04:25:23;;;;;;;2.33;1.27;;;15.30;96.00;;;;;;5033549;28;20050;-81
2023/08/10 04:27:48;;;;;;;5.15;1.70;;;15.30;96.10;;;;;;5033315;28;20044;-81
2023/08/10 04:30:14;;;;;;;3.40;1.40;;;15.30;96.00;;;;;;5031410;28;20075;-81
2023/08/10 04:32:40;;;;;;;3.42;1.40;;;15.30;95.90;;;;;;5044472;28;20191;-81
2023/08/10 04:35:06;;;;;;;4.03;1.20;;;15.30;95.90;;;;;;5039356;28;20052;-81
2023/08/10 04:37:32;;;;;;;3.80;1.48;;;15.20;95.80;;;;;;5049730;28;20045;-81
2023/08/10 04:39:57;;;;;;;3.65;1.33;;;15.20;96.10;;;;;;5031593;28;20140;-81
2023/08/10 04:42:23;;;;;;;3.72;1.27;;;15.20;96.00;;;;;;5032711;28;20380;-81
2023/08/10 04:44:49;;;;;;;3.72;1.55;;;15.20;95.90;;;;;;5032837;28;20049;-81
2023/08/10 04:47:15;;;;;;;3.78;1.20;;;15.20;95.80;;;;;;5032750;28;20051;-81
2023/08/10 04:49:40;;;;;;;2.53;1.20;;;15.20;95.70;;;;;;5037272;28;20045;-81
2023/08/10 04:52:07;;;;;;;3.28;1.40;;;15.20;95.90;;;;;;5051394;28;20450;-81
2023/08/10 04:54:32;;;;;;;4.07;1.70;;;15.20;96.00;;;;;;5037011;28;20118;-81
2023/08/10 04:56:58;;;;;;;4.07;1.33;;;15.20;96.40;;;;;;5052814;28;20458;-81
2023/08/10 04:59:24;;;;;;;2.97;1.38;;;15.20;96.30;;;;;;5036775;28;20045;-81
2023/08/10 05:01:49;;;;;;;3.83;1.30;;;15.20;96.10;;;;;;5036266;28;20129;-81
2023/08/10 05:04:15;;;;;;;3.83;1.70;;;15.20;96.10;;;;;;5046981;28;20048;-81
2023/08/10 05:06:41;;;;;;;4.88;1.60;;;15.20;96.30;;;;;;5038876;28;20049;-81
2023/08/10 05:09:07;;;;;;;2.65;1.20;;;15.20;96.20;;;;;;5038385;28;20049;-81
2023/08/10 05:11:32;;;;;;;3.92;1.30;;;15.20;96.00;;;;;;5036755;28;20425;-81
2023/08/10 05:13:59;;;;;;;3.42;1.30;;;15.20;95.90;;;;;;5036117;28;20132;-81
2023/08/10 05:16:24;;;;;;;3.60;1.35;;;15.20;96.10;;;;;;5035933;28;20067;-81
2023/08/10 05:18:50;;;;;;;4.47;1.30;;;15.20;96.40;;;;;;5041607;28;20047;-81
2023/08/10 05:21:16;;;;;;;3.15;1.33;;;15.20;96.30;;;;;;5055334;28;20045;-81
2023/08/10 05:23:41;;;;;;;4.35;1.48;;;15.20;96.20;;;;;;5018643;28;20060;-81
2023/08/10 05:26:08;;;;;;;4.20;1.42;;;15.30;96.30;;;;;;5036298;28;20037;-81
2023/08/10 05:28:34;;;;;;;3.95;1.45;;;15.30;96.50;;;;;;5034934;28;20049;-81
2023/08/10 05:31:00;;;;;;;4.13;1.40;;;15.20;96.70;;;;;;5035528;28;20037;-81
2023/08/10 05:33:26;;;;;;;2.88;1.30;;;15.30;96.80;;;;;;5046717;28;20499;-81
2023/08/10 05:35:51;;;;;;;3.88;1.30;;;15.30;96.80;;;;;;5034507;28;20041;-81
2023/08/10 05:38:17;;;;;;;3.05;1.30;;;15.30;96.90;;;;;;5051419;28;20395;-81
2023/08/10 05:40:42;;;;;;;4.25;1.25;;;15.30;97.30;;;;;;5039753;28;20043;-81
2023/08/10 05:43:08;;;;;;;3.13;1.23;;;15.30;96.80;;;;;;5054695;28;20098;-81
2023/08/10 05:45:34;;;;;;;3.83;1.40;;;15.30;96.70;;;;;;5055510;28;20383;-81
2023/08/10 05:47:59;;;;;;;2.92;1.27;;;15.30;96.90;;;;;;5055766;28;20155;-81
2023/08/10 05:50:25;;;;;;;3.92;1.40;;;15.40;97.00;;;;;;5056023;28;20548;-81
2023/08/10 05:52:51;;;;;;;3.60;1.50;;;15.30;97.00;;;;;;5055790;28;20045;-81
2023/08/10 05:55:16;;;;;;;3.00;1.48;;;15.40;96.70;;;;;;5040252;28;20095;-81
2023/08/10 05:57:42;;;;;;;3.90;1.40;;;15.40;96.80;;;;;;5035247;28;20053;-81
2023/08/10 06:00:09;;;;;;;3.08;1.35;;;15.40;97.00;;;;;;5033628;28;20130;-81
2023/08/10 06:02:35;;;;;;;4.47;1.40;;;15.40;97.00;;;;;;5035355;28;20515;-80
2023/08/10 06:05:01;;;;;;;3.63;1.55;;;15.40;96.90;;;;;;5034470;28;20068;-81
2023/08/10 06:07:27;;;;;;;3.53;1.45;;;15.40;96.90;;;;;;5035487;28;20038;-81
2023/08/10 06:09:52;;;;;;;5.00;1.30;;;15.50;97.30;;;;;;5048910;28;20041;-81
2023/08/10 06:12:18;;;;;;;3.92;1.35;;;15.50;96.90;;;;;;5041784;28;20045;-81
2023/08/10 06:14:45;;;;;;;3.92;1.60;;;15.50;97.00;;;;;;5043548;28;20076;-81
2023/08/10 06:17:11;;;;;;;3.90;1.30;;;15.50;97.00;;;;;;5052880;28;20044;-80
2023/08/10 06:19:37;;;;;;;5.32;1.17;;;15.50;97.00;;;;;;5034073;28;20037;-81
2023/08/10 06:22:03;;;;;;;3.80;1.20;;;15.50;96.70;;;;;;5034274;28;20111;-81
2023/08/10 06:24:31;;;;;;;4.70;1.50;;;15.50;96.50;;;;;;5033996;28;20117;-80
2023/08/10 06:26:57;;;;;;;8.88;2.20;;;15.60;96.30;;;;;;5049649;28;20080;-81
2023/08/10 06:29:25;;;;;;;3.80;1.20;;;15.60;96.70;;;;;;5033039;28;20085;-81
2023/08/10 06:31:53;;;;;;;3.78;1.55;;;15.60;96.90;;;;;;5028167;28;20088;-81
2023/08/10 06:34:19;;;;;;;7.38;1.98;;;15.70;96.90;;;;;;5034668;28;20444;-80
2023/08/10 06:36:44;;;;;;;6.28;2.15;;;15.70;97.00;;;;;;5035208;28;20040;-81
2023/08/10 06:39:10;;;;;;;4.43;1.52;;;15.70;97.30;;;;;;5037912;28;20083;-81
2023/08/10 06:41:36;;;;;;;5.20;1.90;;;15.70;97.10;;;;;;5041499;28;20040;-81
2023/08/10 06:44:02;;;;;;;4.03;1.50;;;15.80;97.10;;;;;;5034400;28;20042;-80
2023/08/10 06:46:30;;;;;;;5.72;1.50;;;15.80;97.10;;;;;;5033891;28;20041;-81
2023/08/10 06:48:57;;;;;;;3.42;1.58;;;15.90;97.10;;;;;;5034675;28;20136;-80
2023/08/10 06:51:22;;;;;;;5.28;1.40;;;15.90;97.10;;;;;;5033636;28;20124;-81
2023/08/10 06:53:49;;;;;;;7.88;1.70;;;15.90;97.10;;;;;;5034264;28;20123;-80
2023/08/10 06:56:14;;;;;;;5.18;1.45;;;16.00;97.30;;;;;;5048538;28;20041;-80
2023/08/10 06:58:40;;;;;;;6.05;1.60;;;16.00;97.30;;;;;;5042005;28;20057;-81
2023/08/10 07:01:06;;;;;;;5.45;1.58;;;16.10;97.30;;;;;;5050631;28;20053;-80
2023/08/10 07:03:32;;;;;;;8.48;1.73;;;16.10;97.90;;;;;;5035661;28;20044;-81
2023/08/10 07:05:57;;;;;;;4.53;1.45;;;16.20;97.70;;;;;;5041311;28;20046;-81
2023/08/10 07:08:23;;;;;;;5.35;1.38;;;16.20;97.60;;;;;;5033389;28;20564;-81
2023/08/10 07:10:48;;;;;;;7.57;1.60;;;16.20;97.30;;;;;;5033852;28;20132;-81
2023/08/10 07:13:14;;;;;;;10.80;1.85;;;16.30;97.20;;;;;;5033513;28;20049;-81
2023/08/10 07:15:40;;;;;;;7.38;1.73;;;16.40;97.20;;;;;;5033227;28;20049;-81
2023/08/10 07:18:05;;;;;;;8.65;1.48;;;16.40;97.20;;;;;;5048021;28;20168;-80
2023/08/10 07:20:31;;;;;;;7.35;1.30;;;16.50;97.10;;;;;;5033553;28;20049;-81
2023/08/10 07:22:57;;;;;;;5.68;1.35;;;16.50;96.80;;;;;;5034530;28;20186;-81
2023/08/10 07:25:23;;;;;;;3.10;1.08;;;16.50;96.70;;;;;;5033236;28;20479;-80
2023/08/10 07:27:48;;;;;;;9.60;1.50;;;16.60;96.50;;;;;;5032500;28;20041;-81
2023/08/10 07:30:14;;;;;;;9.60;1.30;;;16.60;96.40;;;;;;5032657;28;20125;-81
2023/08/10 07:32:41;;;;;;;7.35;1.15;;;16.70;96.50;;;;;;5032352;28;20551;-80
2023/08/10 07:35:08;;;;;;;6.78;1.35;;;16.80;96.50;;;;;;5034072;28;20056;-81
2023/08/10 07:37:35;;;;;;;6.25;1.50;;;16.90;96.50;;;;;;5033209;28;20052;-81
2023/08/10 07:40:01;;;;;;;3.53;1.15;;;16.90;96.50;;;;;;5031752;28;20048;-81
2023/08/10 07:42:30;;;;;;;8.00;1.13;;;17.00;96.30;;;;;;5032930;28;20068;-81
2023/08/10 07:44:58;;;;;;;5.78;1.13;;;17.10;96.00;;;;;;5033483;28;20049;-81
2023/08/10 07:47:24;;;;;;;5.43;1.13;;;17.10;96.00;;;;;;5032719;28;20042;-81
2023/08/10 07:49:50;;;;;;;5.70;1.10;;;17.20;96.00;;;;;;5033643;28;20106;-80
2023/08/10 07:52:15;;;;;;;6.93;1.15;;;17.20;95.90;;;;;;5032069;28;20491;-80
2023/08/10 07:54:45;;;;;;;7.03;1.40;;;17.30;95.70;;;;;;5033074;28;20125;-81
2023/08/10 07:57:12;;;;;;;5.68;1.23;;;17.40;95.60;;;;;;5035621;28;20118;-80
2023/08/10 07:59:37;;;;;;;5.47;1.13;;;17.40;95.60;;;;;;5032424;28;20403;-81
2023/08/10 08:02:03;;;;;;;6.25;0.93;;;17.50;95.50;;;;;;5035296;28;20071;-80
2023/08/10 08:04:29;;;;;;;7.03;1.05;;;17.50;95.30;;;;;;5033337;28;20071;-81
2023/08/10 08:06:54;;;;;;;4.82;1.20;;;17.60;95.30;;;;;;5047955;28;20431;-80
2023/08/10 08:09:22;;;;;;;6.38;1.15;;;17.60;95.30;;;;;;5048495;28;20077;-80
2023/08/10 08:11:48;;;;;;;5.38;1.10;;;17.70;95.40;;;;;;5038596;28;20463;-80
2023/08/10 08:14:13;;;;;;;4.13;0.98;;;17.70;95.10;;;;;;5034095;28;20044;-80
2023/08/10 08:16:39;;;;;;;8.15;1.35;;;17.70;94.80;;;;;;5032908;28;20438;-80
2023/08/10 08:19:05;;;;;;;4.45;1.00;;;17.80;94.80;;;;;;5032752;28;20400;-80
2023/08/10 08:21:31;;;;;;;5.15;1.02;;;17.80;94.70;;;;;;5031687;28;20050;-80
2023/08/10 08:23:57;;;;;;;4.20;1.10;;;17.90;94.90;;;;;;5032579;28;20459;-80
2023/08/10 08:26:26;;;;;;;5.32;0.90;;;17.90;94.80;;;;;;5031251;28;20052;-80
2023/08/10 08:28:53;;;;;;;7.70;1.52;;;17.90;94.90;;;;;;5033807;28;20111;-80
2023/08/10 08:31:18;;;;;;;6.60;1.10;;;18.00;94.80;;;;;;5032418;28;20041;-80
2023/08/10 08:33:44;;;;;;;5.65;0.90;;;18.00;94.60;;;;;;5032937;28;20448;-80
2023/08/10 08:36:10;;;;;;;5.22;1.38;;;18.10;94.50;;;;;;5032677;28;20460;-80
2023/08/10 08:38:37;;;;;;;5.38;1.30;;;18.10;94.30;;;;;;5035496;28;20503;-81
2023/08/10 08:41:05;;;;;;;8.07;1.10;;;18.10;94.20;;;;;;5041832;28;20038;-80
2023/08/10 08:43:32;;;;;;;4.78;1.23;;;18.10;94.20;;;;;;5033041;28;20053;-81
2023/08/10 08:45:59;;;;;;;7.78;1.20;;;18.20;94.30;;;;;;5032224;28;20037;-80
2023/08/10 08:48:29;;;;;;;5.65;0.98;;;18.10;94.00;;;;;;5031500;28;20089;-80
2023/08/10 08:50:56;;;;;;;2.95;0.80;;;18.20;93.90;;;;;;5033223;28;20053;-80
2023/08/10 08:53:23;;;;;;;8.73;1.45;;;18.20;94.10;;;;;;5032334;28;20168;-80
2023/08/10 08:55:49;;;;;;;7.45;1.10;;;18.30;93.70;;;;;;5044300;28;20048;-80
2023/08/10 08:58:16;;;;;;;5.22;1.27;;;18.30;93.60;;;;;;5047822;28;20057;-79
2023/08/10 09:00:52;;;;;;;4.90;1.10;;;18.30;93.70;;;;;;5035646;28;20178;-79
2023/08/10 09:03:25;;;;;;;4.78;1.08;;;18.30;94.00;;;;;;5032869;28;20503;-79
2023/08/10 09:05:51;;;;;;;4.63;1.00;;;18.30;93.90;;;;;;5032128;28;20037;-79
2023/08/10 09:08:18;;;;;;;5.10;0.98;;;18.30;94.00;;;;;;5031917;28;20044;-79
2023/08/10 09:10:47;;;;;;;7.78;1.25;;;18.40;94.20;;;;;;5032266;28;20488;-79
2023/08/10 09:13:16;;;;;;;6.50;1.30;;;18.40;94.30;;;;;;5032715;28;20051;-79
2023/08/10 09:15:42;;;;;;;6.55;1.02;;;18.40;94.20;;;;;;5034318;28;20491;-80
2023/08/10 09:18:07;;;;;;;4.65;1.13;;;18.40;94.10;;;;;;5031969;28;20045;-80
2023/08/10 09:20:34;;;;;;;7.82;1.38;;;18.40;94.20;;;;;;5032109;28;20041;-80
2023/08/10 09:23:00;;;;;;;4.15;1.05;;;18.40;94.00;;;;;;5031399;28;20583;-79
2023/08/10 09:25:26;;;;;;;3.47;0.90;;;18.50;94.20;;;;;;5031656;28;20053;-79
2023/08/10 09:27:53;;;;;;;5.82;1.10;;;18.50;94.70;;;;;;5032037;28;20041;-79
2023/08/10 09:30:19;;;;;;;5.13;0.82;;;18.50;94.60;;;;;;5031836;28;20531;-79
2023/08/10 09:32:45;;;;;;;7.30;1.23;;;18.50;94.80;;;;;;5032421;28;20045;-79
2023/08/10 09:35:16;;;;;;;5.90;1.10;;;18.50;94.60;;;;;;5035370;28;20406;-79
2023/08/10 09:37:42;;;;;;;7.32;1.10;;;18.50;94.30;;;;;;5042949;28;20044;-79
2023/08/10 09:40:10;;;;;;;5.38;0.80;;;18.50;94.20;;;;;;5027101;28;20048;-79
2023/08/10 09:42:37;;;;;;;4.47;1.00;;;18.60;94.00;;;;;;5020828;28;20487;-79
2023/08/10 09:45:10;;;;;;;5.22;1.08;;;18.60;94.70;;;;;;5016342;28;20080;-78
2023/08/10 09:47:38;;;;;;;3.83;1.00;;;18.60;94.90;;;;;;5024177;28;20451;-79
2023/08/10 09:50:12;;;;;;;4.28;0.90;;;18.70;95.20;;;;;;5018865;28;20037;-79
2023/08/10 09:52:38;;;;;;;5.18;1.00;;;18.70;95.30;;;;;;5035400;28;20041;-79
2023/08/10 09:55:05;;;;;;;6.45;1.02;;;18.70;95.30;;;;;;5019138;28;20088;-79
2023/08/10 09:57:32;;;;;;;3.47;0.90;;;18.70;95.10;;;;;;5018360;28;20365;-79
2023/08/10 09:59:59;;;;;;;4.45;1.00;;;18.70;95.00;;;;;;5034818;28;20076;-79
2023/08/10 10:02:25;;;;;;;6.07;0.90;;;18.70;95.20;;;;;;5030930;28;20498;-80
2023/08/10 10:04:52;;;;;;;3.63;0.90;;;18.80;94.90;;;;;;5027181;28;20136;-79
2023/08/10 10:07:28;;;;;;;3.80;0.90;;;18.80;95.60;;;;;;5030238;28;20042;-79
2023/08/10 10:09:57;;;;;;;4.53;1.30;;;18.80;95.20;;;;;;5027770;28;20614;-79
2023/08/10 10:12:24;;;;;;;4.70;1.08;;;18.80;95.00;;;;;;5030141;28;20092;-79
2023/08/10 10:14:51;;;;;;;5.22;1.10;;;18.80;94.50;;;;;;5015176;28;20049;-79
2023/08/10 10:17:18;;;;;;;6.53;1.10;;;18.80;94.70;;;;;;5039431;28;20040;-79
2023/08/10 10:19:46;;;;;;;4.18;0.90;;;18.90;94.90;;;;;;5037854;28;20500;-79
2023/08/10 10:22:12;;;;;;;3.78;0.85;;;18.90;95.00;;;;;;5027862;28;20033;-79
2023/08/10 10:24:42;;;;;;;6.97;1.30;;;18.80;95.50;;;;;;5027844;28;20045;-79
2023/08/10 10:27:10;;;;;;;7.88;1.00;;;18.90;94.80;;;;;;5028327;28;20049;-79
2023/08/10 10:29:41;;;;;;;6.57;1.20;;;18.90;94.90;;;;;;5027421;28;20522;-80
2023/08/10 10:32:09;;;;;;;3.47;1.00;;;18.90;94.80;;;;;;5019081;28;20049;-79
2023/08/10 10:34:37;;;;;;;5.47;1.10;;;18.90;94.70;;;;;;5043952;28;20396;-80
2023/08/10 10:37:12;;;;;;;3.97;0.90;;;18.90;94.80;;;;;;5042974;28;20068;-79
2023/08/10 10:39:43;;;;;;;7.45;1.27;;;18.90;95.00;;;;;;5042654;28;20082;-79
2023/08/10 10:42:11;;;;;;;3.75;0.90;;;19.00;94.90;;;;;;5030729;28;20049;-80
2023/08/10 10:45:14;;;;;;;4.13;1.10;;;19.00;95.10;;;;;;5034472;28;20041;-79
2023/08/10 10:47:49;;;;;;;3.25;1.08;;;19.00;94.80;;;;;;5025326;28;20045;-79
2023/08/10 10:50:21;;;;;;;3.53;0.95;;;19.00;95.00;;;;;;5033367;28;20499;-80
2023/08/10 10:53:10;;;;;;;3.60;0.90;;;19.00;95.20;;;;;;5029736;28;20503;-79
2023/08/10 10:55:35;;;;;;;4.95;1.20;;;19.00;95.10;;;;;;5025260;28;20081;-79
2023/08/10 10:58:07;;;;;;;3.92;0.82;;;19.10;95.10;;;;;;5033642;28;20092;-80
2023/08/10 11:00:34;;;;;;;4.38;1.27;;;19.00;95.20;;;;;;5046500;28;20520;-80
2023/08/10 11:03:10;;;;;;;6.60;1.27;;;19.10;95.10;;;;;;5046386;28;20045;-79
2023/08/10 11:05:36;;;;;;;4.10;1.17;;;19.10;95.10;;;;;;5042378;28;20068;-79
2023/08/10 11:08:03;;;;;;;4.75;1.08;;;19.10;95.10;;;;;;5033914;28;20053;-79
2023/08/10 11:10:36;;;;;;;4.80;1.20;;;19.10;95.10;;;;;;5034960;28;20445;-79
2023/08/10 11:13:07;;;;;;;8.98;1.50;;;19.10;95.20;;;;;;5032963;28;20137;-79
2023/08/10 11:15:34;;;;;;;6.82;1.58;;;19.10;94.80;;;;;;5032725;28;20053;-80
2023/08/10 11:18:00;;;;;;;3.85;1.00;;;19.10;94.80;;;;;;5033216;28;20058;-80
2023/08/10 11:20:26;;;;;;;5.18;1.30;;;19.20;95.10;;;;;;5033835;28;20044;-80
2023/08/10 11:22:52;;;;;;;5.63;1.10;;;19.20;94.70;;;;;;5033437;28;20053;-79
2023/08/10 11:25:20;;;;;;;10.55;1.73;;;19.20;94.80;;;;;;5033107;28;20041;-80
2023/08/10 11:27:49;;;;;;;5.82;1.33;;;19.20;94.20;;;;;;5060932;28;20454;-79
2023/08/10 11:30:17;;;;;;;5.43;1.50;;;19.20;94.70;;;;;;5037013;28;20045;-79
2023/08/10 11:32:46;;;;;;;5.32;1.20;;;19.20;94.70;;;;;;5049804;28;20072;-80
2023/08/10 11:35:16;;;;;;;4.65;1.27;;;19.30;94.90;;;;;;5036241;28;20046;-79
2023/08/10 11:37:42;;;;;;;6.47;1.60;;;19.30;95.10;;;;;;5023905;28;20045;-79
2023/08/10 11:40:12;;;;;;;7.47;1.52;;;19.30;95.00;;;;;;5040465;28;20044;-78
2023/08/10 11:42:39;;;;;;;6.35;1.65;;;19.30;94.90;;;;;;5029556;28;20504;-80
2023/08/10 11:45:16;;;;;;;7.75;2.00;;;19.40;94.70;;;;;;5021944;28;20467;-80
2023/08/10 11:47:50;;;;;;;7.28;1.95;;;19.40;94.30;;;;;;5030683;28;20041;-80
2023/08/10 11:50:21;;;;;;;5.80;1.50;;;19.40;94.40;;;;;;5013438;28;20041;-80
2023/08/10 11:52:52;;;;;;;3.90;1.05;;;19.50;94.90;;;;;;5023756;28;20056;-80
2023/08/10 11:55:19;;;;;;;3.42;1.10;;;19.50;95.20;;;;;;5028861;28;20480;-79
2023/08/10 11:57:48;;;;;;;7.78;1.45;;;19.60;95.30;;;;;;5039533;28;20402;-79
2023/08/10 12:00:33;;;;;;;4.70;1.63;;;19.60;95.20;;;;;;5027111;28;20050;-80
2023/08/10 12:03:14;;;;;;;5.38;1.55;;;19.60;94.80;;;;;;5033027;28;20068;-79
2023/08/10 12:05:42;;;;;;;3.75;1.38;;;19.70;94.80;;;;;;5013378;28;20120;-79
2023/08/10 12:08:30;;;;;;;7.30;2.45;;;19.70;94.90;;;;;;5032762;28;20044;-79
2023/08/10 12:11:09;;;;;;;5.72;2.10;;;19.80;94.40;;;;;;5019953;28;20046;-79
2023/08/10 12:13:48;;;;;;;6.15;2.00;;;19.90;94.30;;;;;;5033544;28;20046;-79
2023/08/10 12:16:16;;;;;;;5.35;1.92;;;19.90;94.30;;;;;;5032776;28;20121;-79
2023/08/10 12:18:45;;;;;;;8.88;2.00;;;19.90;94.30;;;;;;5046558;28;20049;-80
2023/08/10 12:21:11;;;;;;;5.88;1.90;;;20.00;94.20;;;;;;5033153;28;20044;-79
2023/08/10 12:23:37;;;;;;;3.85;1.33;;;20.00;94.40;;;;;;5040830;28;20056;-78
2023/08/10 12:26:06;;;;;;;5.88;2.00;;;20.10;94.10;;;;;;5031374;28;20076;-79
2023/08/10 12:28:31;;;;;;;7.32;1.80;;;20.10;93.90;;;;;;5043335;28;20084;-79
2023/08/10 12:30:57;;;;;;;6.75;2.00;;;20.10;94.10;;;;;;5032277;28;20046;-79
2023/08/10 12:33:26;;;;;;;8.32;2.35;;;20.20;94.20;;;;;;5041807;28;20088;-80
2023/08/10 12:35:57;;;;;;;6.95;2.50;;;20.20;93.70;;;;;;5028652;28;20053;-79
2023/08/10 12:38:23;;;;;;;10.02;2.53;;;20.20;93.10;;;;;;5030394;28;20042;-79
2023/08/10 12:40:49;;;;;;;9.25;2.58;;;20.30;93.20;;;;;;5029391;28;20418;-79
2023/08/10 12:43:15;;;;;;;6.43;2.03;;;20.30;93.20;;;;;;5013683;28;20124;-79
2023/08/10 12:45:40;;;;;;;6.30;2.47;;;20.40;93.40;;;;;;5019118;28;20072;-79